sensor_id;sensor_type;location;lat;lon;timestamp;pressure;altitude;pressure_sealevel;temperature;humidity
72959;BME280;60008;50.826;6.896;2023-01-30T00:00:13;101462.91;;;2.71;100.00
72959;BME280;60008;50.826;6.896;2023-01-30T00:02:59;101466.19;;;2.74;100.00
72959;BME280;60008;50.826;6.896;2023-01-30T00:05:44;101472.16;;;2.76;100.00
72959;BME280;60008;50.826;6.896;2023-01-30T00:08:29;101452.44;;;2.85;100.00
72959;BME280;60008;50.826;6.896;2023-01-30T00:11:15;101466.28;;;2.87;100.00
72959;BME280;60008;50.826;6.896;2023-01-30T00:14:00;101456.53;;;2.89;100.00
72959;BME280;60008;50.826;6.896;2023-01-30T00:16:45;101449.16;;;2.95;100.00
72959;BME280;60008;50.826;6.896;2023-01-30T00:19:30;101442.59;;;3.03;100.00
72959;BME280;60008;50.826;6.896;2023-01-30T00:22:15;101422.22;;;3.08;100.00
72959;BME280;60008;50.826;6.896;2023-01-30T00:25:00;101428.09;;;3.11;100.00
72959;BME280;60008;50.826;6.896;2023-01-30T00:27:45;101416.72;;;3.12;100.00
72959;BME280;60008;50.826;6.896;2023-01-30T00:30:30;101413.91;;;3.15;100.00
72959;BME280;60008;50.826;6.896;2023-01-30T00:33:16;101401.44;;;3.19;100.00
72959;BME280;60008;50.826;6.896;2023-01-30T00:36:02;101399.25;;;3.39;100.00
72959;BME280;60008;50.826;6.896;2023-01-30T00:38:47;101412.22;;;3.41;100.00
72959;BME280;60008;50.826;6.896;2023-01-30T00:41:32;101416.78;;;3.51;100.00
72959;BME280;60008;50.826;6.896;2023-01-30T00:44:36;101418.47;;;3.52;100.00
72959;BME280;60008;50.826;6.896;2023-01-30T00:47:39;101416.28;;;3.59;100.00
72959;BME280;60008;50.826;6.896;2023-01-30T00:50:24;101407.28;;;3.63;100.00
72959;BME280;60008;50.826;6.896;2023-01-30T00:53:10;101410.22;;;3.58;100.00
72959;BME280;60008;50.826;6.896;2023-01-30T00:55:55;101400.97;;;3.53;100.00
72959;BME280;60008;50.826;6.896;2023-01-30T00:58:40;101393.91;;;3.53;100.00
72959;BME280;60008;50.826;6.896;2023-01-30T01:01:25;101385.25;;;3.53;100.00
72959;BME280;60008;50.826;6.896;2023-01-30T01:04:10;101384.41;;;3.52;100.00
72959;BME280;60008;50.826;6.896;2023-01-30T01:06:55;101384.59;;;3.49;100.00
72959;BME280;60008;50.826;6.896;2023-01-30T01:09:40;101361.75;;;3.51;100.00
72959;BME280;60008;50.826;6.896;2023-01-30T01:12:26;101354.09;;;3.48;100.00
72959;BME280;60008;50.826;6.896;2023-01-30T01:15:12;101350.53;;;3.49;100.00
72959;BME280;60008;50.826;6.896;2023-01-30T01:17:57;101363.53;;;3.51;100.00
72959;BME280;60008;50.826;6.896;2023-01-30T01:20:42;101355.13;;;3.46;100.00
72959;BME280;60008;50.826;6.896;2023-01-30T01:23:27;101352.69;;;3.43;100.00
72959;BME280;60008;50.826;6.896;2023-01-30T01:26:12;101372.84;;;3.42;100.00
72959;BME280;60008;50.826;6.896;2023-01-30T01:28:57;101369.28;;;3.43;100.00
72959;BME280;60008;50.826;6.896;2023-01-30T01:31:43;101365.72;;;3.44;100.00
72959;BME280;60008;50.826;6.896;2023-01-30T01:34:28;101358.72;;;3.45;100.00
72959;BME280;60008;50.826;6.896;2023-01-30T01:37:14;101346.53;;;3.44;100.00
72959;BME280;60008;50.826;6.896;2023-01-30T01:39:59;101355.25;;;3.44;100.00
72959;BME280;60008;50.826;6.896;2023-01-30T01:43:23;101364.13;;;3.81;100.00
72959;BME280;60008;50.826;6.896;2023-01-30T01:46:21;101365.63;;;4.10;100.00
72959;BME280;60008;50.826;6.896;2023-01-30T01:49:18;101362.16;;;4.35;100.00
72959;BME280;60008;50.826;6.896;2023-01-30T01:54:59;101358.47;;;4.63;100.00
72959;BME280;60008;50.826;6.896;2023-01-30T01:57:53;101352.50;;;4.61;100.00
72959;BME280;60008;50.826;6.896;2023-01-30T02:00:39;101349.16;;;4.59;100.00
72959;BME280;60008;50.826;6.896;2023-01-30T02:03:26;101344.00;;;4.57;100.00
72959;BME280;60008;50.826;6.896;2023-01-30T02:06:13;101339.47;;;4.59;100.00
72959;BME280;60008;50.826;6.896;2023-01-30T02:09:04;101323.97;;;4.56;100.00
72959;BME280;60008;50.826;6.896;2023-01-30T02:11:55;101325.19;;;4.63;100.00
72959;BME280;60008;50.826;6.896;2023-01-30T02:14:43;101320.88;;;4.62;100.00
72959;BME280;60008;50.826;6.896;2023-01-30T02:17:29;101330.44;;;4.63;100.00
72959;BME280;60008;50.826;6.896;2023-01-30T02:23:12;101303.88;;;4.68;100.00
72959;BME280;60008;50.826;6.896;2023-01-30T02:32:29;101282.97;;;4.66;100.00
72959;BME280;60008;50.826;6.896;2023-01-30T02:35:30;101290.00;;;4.66;100.00
72959;BME280;60008;50.826;6.896;2023-01-30T02:41:38;101286.53;;;4.65;100.00
72959;BME280;60008;50.826;6.896;2023-01-30T02:44:33;101289.28;;;4.64;100.00
72959;BME280;60008;50.826;6.896;2023-01-30T02:47:25;101270.69;;;4.67;100.00
72959;BME280;60008;50.826;6.896;2023-01-30T02:50:18;101269.72;;;4.68;100.00
72959;BME280;60008;50.826;6.896;2023-01-30T02:53:05;101259.13;;;4.69;100.00
72959;BME280;60008;50.826;6.896;2023-01-30T02:55:50;101256.38;;;4.71;100.00
72959;BME280;60008;50.826;6.896;2023-01-30T02:58:40;101251.97;;;4.71;100.00
72959;BME280;60008;50.826;6.896;2023-01-30T03:01:58;101246.00;;;4.69;100.00
72959;BME280;60008;50.826;6.896;2023-01-30T03:07:56;101240.53;;;4.72;100.00
72959;BME280;60008;50.826;6.896;2023-01-30T03:11:03;101229.81;;;4.75;100.00
72959;BME280;60008;50.826;6.896;2023-01-30T03:14:18;101223.81;;;4.73;100.00
72959;BME280;60008;50.826;6.896;2023-01-30T03:17:08;101208.91;;;4.74;100.00
72959;BME280;60008;50.826;6.896;2023-01-30T03:19:54;101182.44;;;4.77;100.00
72959;BME280;60008;50.826;6.896;2023-01-30T03:22:40;101189.75;;;4.85;100.00
72959;BME280;60008;50.826;6.896;2023-01-30T03:25:25;101192.50;;;4.83;100.00
72959;BME280;60008;50.826;6.896;2023-01-30T03:28:16;101189.88;;;4.83;100.00
72959;BME280;60008;50.826;6.896;2023-01-30T03:31:02;101189.09;;;4.94;100.00
72959;BME280;60008;50.826;6.896;2023-01-30T03:33:47;101184.53;;;4.96;100.00
72959;BME280;60008;50.826;6.896;2023-01-30T03:36:31;101169.19;;;5.02;100.00
72959;BME280;60008;50.826;6.896;2023-01-30T03:39:16;101169.19;;;5.02;100.00
72959;BME280;60008;50.826;6.896;2023-01-30T03:42:02;101172.97;;;4.98;100.00
72959;BME280;60008;50.826;6.896;2023-01-30T03:44:47;101165.81;;;5.00;100.00
72959;BME280;60008;50.826;6.896;2023-01-30T03:47:32;101169.28;;;5.01;100.00
72959;BME280;60008;50.826;6.896;2023-01-30T03:50:17;101162.97;;;5.03;100.00
72959;BME280;60008;50.826;6.896;2023-01-30T03:53:02;101156.28;;;4.99;100.00
72959;BME280;60008;50.826;6.896;2023-01-30T03:55:47;101152.56;;;5.02;100.00
72959;BME280;60008;50.826;6.896;2023-01-30T03:58:32;101150.88;;;5.01;100.00
72959;BME280;60008;50.826;6.896;2023-01-30T04:01:17;101156.16;;;5.01;100.00
72959;BME280;60008;50.826;6.896;2023-01-30T04:04:02;101135.34;;;4.98;100.00
72959;BME280;60008;50.826;6.896;2023-01-30T04:06:48;101127.03;;;5.04;100.00
72959;BME280;60008;50.826;6.896;2023-01-30T04:09:32;101125.84;;;5.08;100.00
72959;BME280;60008;50.826;6.896;2023-01-30T04:12:17;101134.81;;;5.05;100.00
72959;BME280;60008;50.826;6.896;2023-01-30T04:15:02;101132.91;;;5.07;100.00
72959;BME280;60008;50.826;6.896;2023-01-30T04:17:47;101138.75;;;5.11;100.00
72959;BME280;60008;50.826;6.896;2023-01-30T04:20:33;101129.69;;;5.15;100.00
72959;BME280;60008;50.826;6.896;2023-01-30T04:23:17;101135.56;;;5.18;100.00
72959;BME280;60008;50.826;6.896;2023-01-30T04:26:03;101124.31;;;5.16;100.00
72959;BME280;60008;50.826;6.896;2023-01-30T04:28:48;101125.03;;;5.18;100.00
72959;BME280;60008;50.826;6.896;2023-01-30T04:31:33;101123.13;;;5.20;100.00
72959;BME280;60008;50.826;6.896;2023-01-30T04:34:18;101130.88;;;5.22;100.00
72959;BME280;60008;50.826;6.896;2023-01-30T04:37:03;101121.69;;;5.27;100.00
72959;BME280;60008;50.826;6.896;2023-01-30T04:39:48;101129.47;;;5.29;100.00
72959;BME280;60008;50.826;6.896;2023-01-30T04:42:32;101120.50;;;5.31;100.00
72959;BME280;60008;50.826;6.896;2023-01-30T04:45:17;101129.56;;;5.27;100.00
72959;BME280;60008;50.826;6.896;2023-01-30T04:48:03;101132.19;;;5.27;100.00
72959;BME280;60008;50.826;6.896;2023-01-30T04:50:49;101136.91;;;5.35;100.00
72959;BME280;60008;50.826;6.896;2023-01-30T04:53:34;101135.06;;;5.35;100.00
72959;BME280;60008;50.826;6.896;2023-01-30T04:56:19;101137.47;;;5.38;100.00
72959;BME280;60008;50.826;6.896;2023-01-30T04:59:04;101143.72;;;5.37;100.00
72959;BME280;60008;50.826;6.896;2023-01-30T05:01:49;101138.78;;;5.33;100.00
72959;BME280;60008;50.826;6.896;2023-01-30T05:04:34;101139.38;;;5.36;100.00
72959;BME280;60008;50.826;6.896;2023-01-30T05:07:19;101115.25;;;5.31;100.00
72959;BME280;60008;50.826;6.896;2023-01-30T05:10:04;101120.50;;;5.31;100.00
72959;BME280;60008;50.826;6.896;2023-01-30T05:12:49;101118.59;;;5.33;100.00
72959;BME280;60008;50.826;6.896;2023-01-30T05:15:34;101116.09;;;5.32;100.00
72959;BME280;60008;50.826;6.896;2023-01-30T05:18:19;101115.25;;;5.31;100.00
72959;BME280;60008;50.826;6.896;2023-01-30T05:21:10;101115.25;;;5.31;100.00
72959;BME280;60008;50.826;6.896;2023-01-30T05:23:56;101125.38;;;5.25;100.00
72959;BME280;60008;50.826;6.896;2023-01-30T05:26:41;101122.75;;;5.25;100.00
72959;BME280;60008;50.826;6.896;2023-01-30T05:29:26;101126.81;;;5.18;100.00
72959;BME280;60008;50.826;6.896;2023-01-30T05:32:13;101124.44;;;5.15;100.00
72959;BME280;60008;50.826;6.896;2023-01-30T05:34:58;101123.94;;;5.10;100.00
72959;BME280;60008;50.826;6.896;2023-01-30T05:37:43;101131.91;;;5.08;100.00
72959;BME280;60008;50.826;6.896;2023-01-30T05:40:28;101120.00;;;5.04;100.00
72959;BME280;60008;50.826;6.896;2023-01-30T05:43:13;101127.25;;;5.01;100.00
72959;BME280;60008;50.826;6.896;2023-01-30T05:46:00;101130.22;;;4.96;100.00
72959;BME280;60008;50.826;6.896;2023-01-30T05:48:45;101141.69;;;4.95;100.00
72959;BME280;60008;50.826;6.896;2023-01-30T05:51:30;101140.13;;;4.93;100.00
72959;BME280;60008;50.826;6.896;2023-01-30T05:54:15;101141.91;;;4.92;100.00
72959;BME280;60008;50.826;6.896;2023-01-30T05:57:00;101135.72;;;4.93;100.00
72959;BME280;60008;50.826;6.896;2023-01-30T05:59:45;101123.66;;;4.91;100.00
72959;BME280;60008;50.826;6.896;2023-01-30T06:02:30;101128.06;;;4.90;100.00
72959;BME280;60008;50.826;6.896;2023-01-30T06:05:15;101130.47;;;4.93;100.00
72959;BME280;60008;50.826;6.896;2023-01-30T06:08:00;101133.22;;;4.92;100.00
72959;BME280;60008;50.826;6.896;2023-01-30T06:10:45;101138.22;;;4.95;100.00
72959;BME280;60008;50.826;6.896;2023-01-30T06:13:30;101140.03;;;4.94;100.00
72959;BME280;60008;50.826;6.896;2023-01-30T06:16:16;101134.53;;;4.97;100.00
72959;BME280;60008;50.826;6.896;2023-01-30T06:19:02;101130.94;;;4.98;100.00
72959;BME280;60008;50.826;6.896;2023-01-30T06:21:47;101130.50;;;5.04;100.00
72959;BME280;60008;50.826;6.896;2023-01-30T06:24:32;101128.00;;;5.03;100.00
72959;BME280;60008;50.826;6.896;2023-01-30T06:27:17;101135.63;;;5.06;100.00
72959;BME280;60008;50.826;6.896;2023-01-30T06:30:03;101129.28;;;5.08;100.00
72959;BME280;60008;50.826;6.896;2023-01-30T06:32:51;101141.72;;;5.06;100.00
72959;BME280;60008;50.826;6.896;2023-01-30T06:35:37;101147.81;;;5.07;100.00
72959;BME280;60008;50.826;6.896;2023-01-30T06:38:22;101152.34;;;5.05;100.00
72959;BME280;60008;50.826;6.896;2023-01-30T06:41:08;101162.16;;;5.03;100.00
72959;BME280;60008;50.826;6.896;2023-01-30T06:43:53;101139.69;;;5.10;100.00
72959;BME280;60008;50.826;6.896;2023-01-30T06:46:39;101149.28;;;5.11;100.00
72959;BME280;60008;50.826;6.896;2023-01-30T06:49:24;101146.97;;;5.06;100.00
72959;BME280;60008;50.826;6.896;2023-01-30T06:52:08;101144.81;;;5.11;100.00
72959;BME280;60008;50.826;6.896;2023-01-30T06:54:53;101143.88;;;5.12;100.00
72959;BME280;60008;50.826;6.896;2023-01-30T06:57:39;101146.38;;;5.14;100.00
72959;BME280;60008;50.826;6.896;2023-01-30T07:00:24;101144.81;;;5.11;100.00
72959;BME280;60008;50.826;6.896;2023-01-30T07:03:10;101144.97;;;5.10;100.00
72959;BME280;60008;50.826;6.896;2023-01-30T07:05:56;101151.28;;;5.07;100.00
72959;BME280;60008;50.826;6.896;2023-01-30T07:08:41;101162.63;;;5.08;100.00
72959;BME280;60008;50.826;6.896;2023-01-30T07:11:26;101172.06;;;5.10;100.00
72959;BME280;60008;50.826;6.896;2023-01-30T07:14:11;101183.50;;;5.09;100.00
72959;BME280;60008;50.826;6.896;2023-01-30T07:16:56;101172.41;;;5.06;100.00
72959;BME280;60008;50.826;6.896;2023-01-30T07:19:41;101166.66;;;5.01;100.00
72959;BME280;60008;50.826;6.896;2023-01-30T07:22:26;101188.72;;;4.98;100.00
72959;BME280;60008;50.826;6.896;2023-01-30T07:25:11;101180.13;;;4.96;100.00
72959;BME280;60008;50.826;6.896;2023-01-30T07:27:59;101181.56;;;5.00;100.00
72959;BME280;60008;50.826;6.896;2023-01-30T07:30:44;101193.97;;;4.98;100.00
72959;BME280;60008;50.826;6.896;2023-01-30T07:33:29;101176.31;;;5.00;100.00
72959;BME280;60008;50.826;6.896;2023-01-30T07:36:14;101167.44;;;4.90;100.00
72959;BME280;60008;50.826;6.896;2023-01-30T07:38:59;101164.97;;;4.89;100.00
72959;BME280;60008;50.826;6.896;2023-01-30T07:41:47;101174.63;;;4.88;100.00
72959;BME280;60008;50.826;6.896;2023-01-30T07:44:32;101181.44;;;4.91;100.00
72959;BME280;60008;50.826;6.896;2023-01-30T07:47:17;101185.00;;;4.90;100.00
72959;BME280;60008;50.826;6.896;2023-01-30T07:50:04;101188.25;;;4.93;100.00
72959;BME280;60008;50.826;6.896;2023-01-30T07:52:49;101194.13;;;4.97;100.00
72959;BME280;60008;50.826;6.896;2023-01-30T07:55:34;101192.91;;;5.01;100.00
72959;BME280;60008;50.826;6.896;2023-01-30T07:58:19;101199.84;;;5.02;100.00
72959;BME280;60008;50.826;6.896;2023-01-30T08:01:04;101201.03;;;4.98;100.00
72959;BME280;60008;50.826;6.896;2023-01-30T08:03:50;101199.22;;;4.98;100.00
72959;BME280;60008;50.826;6.896;2023-01-30T08:06:35;101221.94;;;4.99;100.00
72959;BME280;60008;50.826;6.896;2023-01-30T08:09:23;101231.59;;;4.99;100.00
72959;BME280;60008;50.826;6.896;2023-01-30T08:12:07;101227.91;;;5.01;100.00
72959;BME280;60008;50.826;6.896;2023-01-30T08:14:52;101223.38;;;5.03;100.00
72959;BME280;60008;50.826;6.896;2023-01-30T08:17:37;101216.09;;;5.07;100.00
72959;BME280;60008;50.826;6.896;2023-01-30T08:20:23;101217.94;;;5.17;100.00
72959;BME280;60008;50.826;6.896;2023-01-30T08:23:08;101213.66;;;5.27;100.00
72959;BME280;60008;50.826;6.896;2023-01-30T08:25:57;101204.16;;;5.37;100.00
72959;BME280;60008;50.826;6.896;2023-01-30T08:28:43;101197.69;;;5.41;100.00
72959;BME280;60008;50.826;6.896;2023-01-30T08:31:27;101202.63;;;5.46;100.00
72959;BME280;60008;50.826;6.896;2023-01-30T08:34:12;101194.84;;;5.56;100.00
72959;BME280;60008;50.826;6.896;2023-01-30T08:36:57;101192.97;;;5.69;100.00
72959;BME280;60008;50.826;6.896;2023-01-30T08:39:42;101205.22;;;5.92;100.00
72959;BME280;60008;50.826;6.896;2023-01-30T08:42:27;101213.59;;;6.08;100.00
72959;BME280;60008;50.826;6.896;2023-01-30T08:45:12;101225.75;;;6.20;100.00
72959;BME280;60008;50.826;6.896;2023-01-30T08:47:58;101205.41;;;6.33;100.00
72959;BME280;60008;50.826;6.896;2023-01-30T08:50:44;101218.47;;;6.24;100.00
72959;BME280;60008;50.826;6.896;2023-01-30T08:53:28;101208.41;;;6.18;100.00
72959;BME280;60008;50.826;6.896;2023-01-30T08:56:13;101205.31;;;6.24;100.00
72959;BME280;60008;50.826;6.896;2023-01-30T08:58:58;101201.19;;;6.42;100.00
72959;BME280;60008;50.826;6.896;2023-01-30T09:01:43;101202.53;;;6.36;100.00
72959;BME280;60008;50.826;6.896;2023-01-30T09:04:29;101200.75;;;6.26;100.00
72959;BME280;60008;50.826;6.896;2023-01-30T09:07:13;101210.81;;;6.32;100.00
72959;BME280;60008;50.826;6.896;2023-01-30T09:09:58;101219.31;;;6.24;100.00
72959;BME280;60008;50.826;6.896;2023-01-30T09:12:43;101210.44;;;6.36;100.00
72959;BME280;60008;50.826;6.896;2023-01-30T09:15:28;101194.06;;;6.33;100.00
72959;BME280;60008;50.826;6.896;2023-01-30T09:18:13;101202.66;;;6.46;100.00
72959;BME280;60008;50.826;6.896;2023-01-30T09:21:03;101177.03;;;6.48;100.00
72959;BME280;60008;50.826;6.896;2023-01-30T09:23:48;101181.69;;;6.44;100.00
72959;BME280;60008;50.826;6.896;2023-01-30T09:26:33;101171.88;;;6.57;100.00
72959;BME280;60008;50.826;6.896;2023-01-30T09:29:18;101186.44;;;6.62;100.00
72959;BME280;60008;50.826;6.896;2023-01-30T09:32:03;101187.03;;;6.65;100.00
72959;BME280;60008;50.826;6.896;2023-01-30T09:34:48;101183.63;;;6.74;100.00
72959;BME280;60008;50.826;6.896;2023-01-30T09:37:33;101196.31;;;6.80;100.00
72959;BME280;60008;50.826;6.896;2023-01-30T09:40:21;101194.72;;;6.89;100.00
72959;BME280;60008;50.826;6.896;2023-01-30T09:46:13;101200.09;;;7.19;100.00
72959;BME280;60008;50.826;6.896;2023-01-30T09:49:11;101202.81;;;7.29;100.00
72959;BME280;60008;50.826;6.896;2023-01-30T09:52:28;101184.94;;;8.13;100.00
72959;BME280;60008;50.826;6.896;2023-01-30T09:55:21;101199.97;;;8.81;100.00
72959;BME280;60008;50.826;6.896;2023-01-30T09:58:17;101171.84;;;9.19;100.00
72959;BME280;60008;50.826;6.896;2023-01-30T10:01:09;101180.50;;;8.82;100.00
72959;BME280;60008;50.826;6.896;2023-01-30T10:04:14;101193.03;;;7.40;100.00
72959;BME280;60008;50.826;6.896;2023-01-30T10:07:23;101193.16;;;7.59;100.00
72959;BME280;60008;50.826;6.896;2023-01-30T10:10:29;101187.56;;;8.13;100.00
72959;BME280;60008;50.826;6.896;2023-01-30T10:13:28;101193.78;;;8.43;100.00
72959;BME280;60008;50.826;6.896;2023-01-30T10:16:21;101187.59;;;8.63;100.00
72959;BME280;60008;50.826;6.896;2023-01-30T10:22:46;101187.69;;;9.47;100.00
72959;BME280;60008;50.826;6.896;2023-01-30T10:25:43;101194.38;;;9.51;100.00
72959;BME280;60008;50.826;6.896;2023-01-30T10:28:33;101194.81;;;8.61;100.00
72959;BME280;60008;50.826;6.896;2023-01-30T10:31:25;101196.31;;;8.54;100.00
72959;BME280;60008;50.826;6.896;2023-01-30T10:34:22;101221.44;;;8.08;100.00
72959;BME280;60008;50.826;6.896;2023-01-30T10:37:31;101181.44;;;8.03;100.00
72959;BME280;60008;50.826;6.896;2023-01-30T10:40:32;101207.19;;;8.70;100.00
72959;BME280;60008;50.826;6.896;2023-01-30T10:43:25;101219.41;;;8.12;100.00
72959;BME280;60008;50.826;6.896;2023-01-30T10:46:29;101199.81;;;8.24;100.00
72959;BME280;60008;50.826;6.896;2023-01-30T10:49:46;101201.41;;;7.66;100.00
72959;BME280;60008;50.826;6.896;2023-01-30T10:52:41;101197.97;;;8.05;100.00
72959;BME280;60008;50.826;6.896;2023-01-30T10:55:33;101206.09;;;7.62;100.00
72959;BME280;60008;50.826;6.896;2023-01-30T10:58:32;101210.91;;;7.57;100.00
72959;BME280;60008;50.826;6.896;2023-01-30T11:02:00;101212.28;;;7.52;100.00
72959;BME280;60008;50.826;6.896;2023-01-30T11:04:57;101210.03;;;7.47;100.00
72959;BME280;60008;50.826;6.896;2023-01-30T11:07:45;101211.38;;;7.42;100.00
72959;BME280;60008;50.826;6.896;2023-01-30T11:10:30;101210.22;;;7.55;100.00
72959;BME280;60008;50.826;6.896;2023-01-30T11:13:21;101209.03;;;7.48;100.00
72959;BME280;60008;50.826;6.896;2023-01-30T11:16:10;101214.94;;;7.61;100.00
72959;BME280;60008;50.826;6.896;2023-01-30T11:18:57;101207.59;;;7.86;100.00
72959;BME280;60008;50.826;6.896;2023-01-30T11:22:04;101217.59;;;7.61;100.00
72959;BME280;60008;50.826;6.896;2023-01-30T11:24:59;101234.56;;;7.48;100.00
72959;BME280;60008;50.826;6.896;2023-01-30T11:27:52;101223.59;;;7.43;100.00
72959;BME280;60008;50.826;6.896;2023-01-30T11:30:38;101215.38;;;7.36;100.00
72959;BME280;60008;50.826;6.896;2023-01-30T11:33:30;101210.22;;;7.35;100.00
72959;BME280;60008;50.826;6.896;2023-01-30T11:36:26;101207.66;;;7.44;100.00
72959;BME280;60008;50.826;6.896;2023-01-30T11:41:58;101215.66;;;7.43;100.00
72959;BME280;60008;50.826;6.896;2023-01-30T11:44:45;101214.03;;;7.42;100.00
72959;BME280;60008;50.826;6.896;2023-01-30T11:47:30;101213.94;;;7.32;100.00
72959;BME280;60008;50.826;6.896;2023-01-30T11:50:17;101213.25;;;7.30;100.00
72959;BME280;60008;50.826;6.896;2023-01-30T11:53:20;101218.63;;;7.29;100.00
72959;BME280;60008;50.826;6.896;2023-01-30T11:56:27;101197.88;;;7.35;100.00
72959;BME280;60008;50.826;6.896;2023-01-30T12:02:25;101215.16;;;7.49;100.00
72959;BME280;60008;50.826;6.896;2023-01-30T12:05:25;101215.88;;;7.51;100.00
72959;BME280;60008;50.826;6.896;2023-01-30T12:14:18;101190.66;;;7.37;100.00
72959;BME280;60008;50.826;6.896;2023-01-30T12:17:20;101205.78;;;7.35;100.00
72959;BME280;60008;50.826;6.896;2023-01-30T12:20:45;101198.72;;;7.36;100.00
72959;BME280;60008;50.826;6.896;2023-01-30T12:23:39;101204.28;;;7.42;100.00
72959;BME280;60008;50.826;6.896;2023-01-30T12:26:43;101208.34;;;7.46;100.00
72959;BME280;60008;50.826;6.896;2023-01-30T12:29:47;101219.91;;;7.34;100.00
72959;BME280;60008;50.826;6.896;2023-01-30T12:32:35;101215.88;;;7.30;100.00
72959;BME280;60008;50.826;6.896;2023-01-30T12:35:27;101211.09;;;7.24;100.00
72959;BME280;60008;50.826;6.896;2023-01-30T12:51:39;101228.00;;;7.01;100.00
72959;BME280;60008;50.826;6.896;2023-01-30T12:57:45;101224.75;;;6.97;100.00
72959;BME280;60008;50.826;6.896;2023-01-30T13:04:08;101232.41;;;7.00;100.00
72959;BME280;60008;50.826;6.896;2023-01-30T13:07:17;101230.34;;;7.04;100.00
72959;BME280;60008;50.826;6.896;2023-01-30T13:13:14;101247.47;;;7.09;100.00
72959;BME280;60008;50.826;6.896;2023-01-30T13:16:27;101251.31;;;7.05;100.00
72959;BME280;60008;50.826;6.896;2023-01-30T13:19:25;101265.31;;;7.17;100.00
72959;BME280;60008;50.826;6.896;2023-01-30T13:22:40;101246.31;;;7.23;100.00
72959;BME280;60008;50.826;6.896;2023-01-30T13:28:18;101251.09;;;7.29;100.00
72959;BME280;60008;50.826;6.896;2023-01-30T13:31:08;101252.53;;;7.33;100.00
72959;BME280;60008;50.826;6.896;2023-01-30T13:34:05;101267.22;;;7.47;100.00
72959;BME280;60008;50.826;6.896;2023-01-30T13:37:18;101266.06;;;7.29;100.00
72959;BME280;60008;50.826;6.896;2023-01-30T13:40:25;101291.88;;;7.25;100.00
72959;BME280;60008;50.826;6.896;2023-01-30T13:43:18;101287.06;;;7.30;100.00
72959;BME280;60008;50.826;6.896;2023-01-30T13:46:10;101298.69;;;7.28;100.00
72959;BME280;60008;50.826;6.896;2023-01-30T13:49:20;101302.16;;;7.28;100.00
72959;BME280;60008;50.826;6.896;2023-01-30T13:52:16;101285.50;;;7.28;100.00
72959;BME280;60008;50.826;6.896;2023-01-30T13:58:17;101296.31;;;7.25;100.00
72959;BME280;60008;50.826;6.896;2023-01-30T14:01:12;101298.34;;;7.21;100.00
72959;BME280;60008;50.826;6.896;2023-01-30T14:10:18;101323.28;;;7.17;100.00
72959;BME280;60008;50.826;6.896;2023-01-30T14:13:05;101313.94;;;7.13;100.00
72959;BME280;60008;50.826;6.896;2023-01-30T14:15:53;101323.88;;;7.09;100.00
72959;BME280;60008;50.826;6.896;2023-01-30T14:18:40;101330.25;;;7.07;100.00
72959;BME280;60008;50.826;6.896;2023-01-30T14:21:27;101343.66;;;7.15;100.00
72959;BME280;60008;50.826;6.896;2023-01-30T14:24:19;101350.75;;;7.14;100.00
72959;BME280;60008;50.826;6.896;2023-01-30T14:27:23;101335.16;;;7.11;100.00
72959;BME280;60008;50.826;6.896;2023-01-30T14:39:38;101356.75;;;7.05;100.00
72959;BME280;60008;50.826;6.896;2023-01-30T14:42:26;101363.19;;;7.01;100.00
72959;BME280;60008;50.826;6.896;2023-01-30T14:45:14;101379.13;;;7.11;100.00
72959;BME280;60008;50.826;6.896;2023-01-30T14:48:55;101369.91;;;7.05;100.00
72959;BME280;60008;50.826;6.896;2023-01-30T14:51:48;101375.56;;;7.01;100.00
72959;BME280;60008;50.826;6.896;2023-01-30T14:54:36;101370.06;;;6.93;100.00
72959;BME280;60008;50.826;6.896;2023-01-30T14:57:27;101376.66;;;6.87;100.00
72959;BME280;60008;50.826;6.896;2023-01-30T15:00:18;101380.47;;;6.83;100.00
72959;BME280;60008;50.826;6.896;2023-01-30T15:03:15;101381.19;;;6.85;100.00
72959;BME280;60008;50.826;6.896;2023-01-30T15:06:04;101391.72;;;6.85;100.00
72959;BME280;60008;50.826;6.896;2023-01-30T15:08:51;101393.78;;;6.93;100.00
72959;BME280;60008;50.826;6.896;2023-01-30T15:11:36;101388.97;;;6.98;100.00
72959;BME280;60008;50.826;6.896;2023-01-30T15:14:27;101396.88;;;7.09;100.00
72959;BME280;60008;50.826;6.896;2023-01-30T15:21:00;101404.28;;;7.15;100.00
72959;BME280;60008;50.826;6.896;2023-01-30T15:30:04;101408.75;;;7.03;100.00
72959;BME280;60008;50.826;6.896;2023-01-30T15:33:20;101413.03;;;7.04;100.00
72959;BME280;60008;50.826;6.896;2023-01-30T15:36:26;101420.47;;;6.99;100.00
72959;BME280;60008;50.826;6.896;2023-01-30T15:39:20;101419.16;;;6.94;100.00
72959;BME280;60008;50.826;6.896;2023-01-30T15:42:06;101432.56;;;6.91;100.00
72959;BME280;60008;50.826;6.896;2023-01-30T15:45:00;101434.00;;;6.84;100.00
72959;BME280;60008;50.826;6.896;2023-01-30T15:50:52;101452.06;;;6.77;100.00
72959;BME280;60008;50.826;6.896;2023-01-30T15:53:45;101453.06;;;6.76;100.00
72959;BME280;60008;50.826;6.896;2023-01-30T15:56:31;101449.69;;;6.74;100.00
72959;BME280;60008;50.826;6.896;2023-01-30T15:59:28;101460.09;;;6.65;100.00
72959;BME280;60008;50.826;6.896;2023-01-30T16:02:28;101466.22;;;6.65;100.00
72959;BME280;60008;50.826;6.896;2023-01-30T16:05:17;101462.25;;;6.59;100.00
72959;BME280;60008;50.826;6.896;2023-01-30T16:08:11;101471.72;;;6.62;100.00
72959;BME280;60008;50.826;6.896;2023-01-30T16:11:02;101481.13;;;6.53;100.00
72959;BME280;60008;50.826;6.896;2023-01-30T16:13:47;101483.16;;;6.50;100.00
72959;BME280;60008;50.826;6.896;2023-01-30T16:16:33;101492.94;;;6.37;100.00
72959;BME280;60008;50.826;6.896;2023-01-30T16:19:31;101500.69;;;6.27;100.00
72959;BME280;60008;50.826;6.896;2023-01-30T16:22:18;101502.84;;;6.22;100.00